sensor_id;sensor_type;location;lat;lon;timestamp;pressure;altitude;pressure_sealevel;temperature;humidity
68793;BME280;55778;54.346;10.210;2022-08-25T00:01:25;101817.00;;;18.91;86.88
68793;BME280;55778;54.346;10.210;2022-08-25T00:03:51;101821.84;;;18.97;86.46
68793;BME280;55778;54.346;10.210;2022-08-25T00:06:18;101809.41;;;18.85;86.85
68793;BME280;55778;54.346;10.210;2022-08-25T00:08:44;101821.50;;;18.76;87.16
68793;BME280;55778;54.346;10.210;2022-08-25T00:11:19;101811.16;;;18.78;87.28
68793;BME280;55778;54.346;10.210;2022-08-25T00:13:49;101818.59;;;18.69;87.94
68793;BME280;55778;54.346;10.210;2022-08-25T00:16:19;101818.22;;;18.64;88.13
68793;BME280;55778;54.346;10.210;2022-08-25T00:18:48;101821.50;;;18.60;88.40
68793;BME280;55778;54.346;10.210;2022-08-25T00:21:14;101821.84;;;18.57;88.54
68793;BME280;55778;54.346;10.210;2022-08-25T00:23:41;101818.56;;;18.45;88.77
68793;BME280;55778;54.346;10.210;2022-08-25T00:26:07;101816.31;;;18.41;89.15
68793;BME280;55778;54.346;10.210;2022-08-25T00:28:33;101817.50;;;18.38;89.09
68793;BME280;55778;54.346;10.210;2022-08-25T00:30:59;101812.88;;;18.47;88.80
68793;BME280;55778;54.346;10.210;2022-08-25T00:33:26;101808.72;;;18.43;88.83
68793;BME280;55778;54.346;10.210;2022-08-25T00:35:52;101812.84;;;18.39;88.86
68793;BME280;55778;54.346;10.210;2022-08-25T00:38:18;101816.66;;;18.38;89.14
68793;BME280;55778;54.346;10.210;2022-08-25T00:40:45;101823.50;;;18.34;89.41
68793;BME280;55778;54.346;10.210;2022-08-25T00:43:11;101819.03;;;18.25;89.56
68793;BME280;55778;54.346;10.210;2022-08-25T00:45:37;101820.19;;;18.22;89.99
68793;BME280;55778;54.346;10.210;2022-08-25T00:48:03;101822.78;;;18.24;89.75
68793;BME280;55778;54.346;10.210;2022-08-25T00:50:31;101818.47;;;18.13;89.90
68793;BME280;55778;54.346;10.210;2022-08-25T00:53:03;101813.78;;;18.06;91.02
68793;BME280;55778;54.346;10.210;2022-08-25T00:55:33;101823.47;;;18.10;90.96
68793;BME280;55778;54.346;10.210;2022-08-25T00:58:05;101824.69;;;18.15;90.45
68793;BME280;55778;54.346;10.210;2022-08-25T01:00:38;101819.38;;;18.22;90.10
68793;BME280;55778;54.346;10.210;2022-08-25T01:03:04;101827.81;;;18.20;90.41
68793;BME280;55778;54.346;10.210;2022-08-25T01:05:30;101828.47;;;18.22;90.51
68793;BME280;55778;54.346;10.210;2022-08-25T01:07:57;101834.16;;;18.21;90.22
68793;BME280;55778;54.346;10.210;2022-08-25T01:10:24;101830.19;;;18.15;90.13
68793;BME280;55778;54.346;10.210;2022-08-25T01:12:57;101837.63;;;18.23;90.13
68793;BME280;55778;54.346;10.210;2022-08-25T01:15:23;101832.97;;;18.15;90.56
68793;BME280;55778;54.346;10.210;2022-08-25T01:17:54;101830.38;;;18.14;90.37
68793;BME280;55778;54.346;10.210;2022-08-25T01:20:22;101838.97;;;18.11;90.75
68793;BME280;55778;54.346;10.210;2022-08-25T01:22:49;101833.09;;;18.06;90.53
68793;BME280;55778;54.346;10.210;2022-08-25T01:27:47;101831.72;;;18.02;91.03
68793;BME280;55778;54.346;10.210;2022-08-25T01:30:12;101831.53;;;18.03;90.81
68793;BME280;55778;54.346;10.210;2022-08-25T01:32:38;101834.47;;;18.02;90.77
68793;BME280;55778;54.346;10.210;2022-08-25T01:35:04;101821.72;;;18.01;90.74
68793;BME280;55778;54.346;10.210;2022-08-25T01:37:33;101824.97;;;17.96;90.74
68793;BME280;55778;54.346;10.210;2022-08-25T01:39:58;101824.09;;;17.96;91.05
68793;BME280;55778;54.346;10.210;2022-08-25T01:42:36;101824.09;;;17.96;90.71
68793;BME280;55778;54.346;10.210;2022-08-25T01:45:02;101816.38;;;17.99;90.84
68793;BME280;55778;54.346;10.210;2022-08-25T01:47:27;101826.88;;;17.96;90.96
68793;BME280;55778;54.346;10.210;2022-08-25T01:49:53;101824.97;;;17.96;90.83
68793;BME280;55778;54.346;10.210;2022-08-25T01:52:29;101830.13;;;17.91;91.08
68793;BME280;55778;54.346;10.210;2022-08-25T01:54:56;101823.00;;;17.80;91.78
68793;BME280;55778;54.346;10.210;2022-08-25T01:57:21;101820.25;;;17.80;91.76
68793;BME280;55778;54.346;10.210;2022-08-25T01:59:47;101821.09;;;17.73;91.60
68793;BME280;55778;54.346;10.210;2022-08-25T02:02:12;101820.91;;;17.66;91.64
68793;BME280;55778;54.346;10.210;2022-08-25T02:04:37;101822.78;;;17.58;92.36
68793;BME280;55778;54.346;10.210;2022-08-25T02:07:05;101817.59;;;17.55;92.36
68793;BME280;55778;54.346;10.210;2022-08-25T02:09:32;101817.38;;;17.48;93.00
68793;BME280;55778;54.346;10.210;2022-08-25T02:11:58;101828.41;;;17.48;93.28
68793;BME280;55778;54.346;10.210;2022-08-25T02:14:24;101830.59;;;17.45;93.46
68793;BME280;55778;54.346;10.210;2022-08-25T02:16:51;101825.72;;;17.39;93.74
68793;BME280;55778;54.346;10.210;2022-08-25T02:19:18;101835.94;;;17.46;93.36
68793;BME280;55778;54.346;10.210;2022-08-25T02:21:43;101826.59;;;17.39;94.08
68793;BME280;55778;54.346;10.210;2022-08-25T02:24:10;101832.97;;;17.40;93.64
68793;BME280;55778;54.346;10.210;2022-08-25T02:26:36;101830.53;;;17.37;93.64
68793;BME280;55778;54.346;10.210;2022-08-25T02:29:04;101842.06;;;17.32;93.54
68793;BME280;55778;54.346;10.210;2022-08-25T02:31:30;101837.56;;;17.31;94.17
68793;BME280;55778;54.346;10.210;2022-08-25T02:33:56;101834.44;;;17.26;94.56
68793;BME280;55778;54.346;10.210;2022-08-25T02:36:21;101833.72;;;17.24;94.63
68793;BME280;55778;54.346;10.210;2022-08-25T02:38:48;101835.25;;;17.19;95.20
68793;BME280;55778;54.346;10.210;2022-08-25T02:41:18;101846.09;;;17.20;94.88
68793;BME280;55778;54.346;10.210;2022-08-25T02:43:46;101840.03;;;17.17;95.21
68793;BME280;55778;54.346;10.210;2022-08-25T02:46:14;101837.78;;;17.12;94.92
68793;BME280;55778;54.346;10.210;2022-08-25T02:48:40;101834.69;;;17.15;94.92
68793;BME280;55778;54.346;10.210;2022-08-25T02:51:09;101830.56;;;17.11;94.80
68793;BME280;55778;54.346;10.210;2022-08-25T02:53:36;101827.56;;;17.05;95.28
68793;BME280;55778;54.346;10.210;2022-08-25T02:56:04;101831.28;;;16.96;95.06
68793;BME280;55778;54.346;10.210;2022-08-25T02:58:30;101824.69;;;16.89;96.23
68793;BME280;55778;54.346;10.210;2022-08-25T03:00:55;101832.59;;;16.84;96.74
68793;BME280;55778;54.346;10.210;2022-08-25T03:03:22;101827.09;;;16.84;96.58
68793;BME280;55778;54.346;10.210;2022-08-25T03:05:47;101831.31;;;16.78;97.13
68793;BME280;55778;54.346;10.210;2022-08-25T03:08:13;101824.09;;;16.77;96.88
68793;BME280;55778;54.346;10.210;2022-08-25T03:10:39;101822.22;;;16.78;96.89
68793;BME280;55778;54.346;10.210;2022-08-25T03:13:05;101821.50;;;16.76;97.02
68793;BME280;55778;54.346;10.210;2022-08-25T03:15:30;101819.56;;;16.68;97.54
68793;BME280;55778;54.346;10.210;2022-08-25T03:17:56;101816.97;;;16.67;97.58
68793;BME280;55778;54.346;10.210;2022-08-25T03:20:23;101812.34;;;16.67;97.74
68793;BME280;55778;54.346;10.210;2022-08-25T03:22:49;101808.31;;;16.62;97.31
68793;BME280;55778;54.346;10.210;2022-08-25T03:25:15;101808.88;;;16.65;97.87
68793;BME280;55778;54.346;10.210;2022-08-25T03:28:00;101797.53;;;16.68;97.47
68793;BME280;55778;54.346;10.210;2022-08-25T03:30:26;101795.50;;;16.70;97.67
68793;BME280;55778;54.346;10.210;2022-08-25T03:32:51;101792.75;;;16.70;97.74
68793;BME280;55778;54.346;10.210;2022-08-25T03:35:17;101791.38;;;16.74;97.54
68793;BME280;55778;54.346;10.210;2022-08-25T03:37:42;101787.41;;;16.69;97.14
68793;BME280;55778;54.346;10.210;2022-08-25T03:40:11;101792.59;;;16.72;97.26
68793;BME280;55778;54.346;10.210;2022-08-25T03:42:43;101792.03;;;16.68;97.58
68793;BME280;55778;54.346;10.210;2022-08-25T03:45:10;101788.03;;;16.63;97.71
68793;BME280;55778;54.346;10.210;2022-08-25T03:47:37;101786.75;;;16.57;97.83
68793;BME280;55778;54.346;10.210;2022-08-25T03:50:08;101785.44;;;16.61;98.01
68793;BME280;55778;54.346;10.210;2022-08-25T03:52:35;101782.53;;;16.63;97.54
68793;BME280;55778;54.346;10.210;2022-08-25T03:55:03;101782.53;;;16.63;97.60
68793;BME280;55778;54.346;10.210;2022-08-25T03:57:29;101776.94;;;16.55;97.81
68793;BME280;55778;54.346;10.210;2022-08-25T03:59:54;101783.69;;;16.60;97.90
68793;BME280;55778;54.346;10.210;2022-08-25T04:02:19;101784.34;;;16.54;98.83
68793;BME280;55778;54.346;10.210;2022-08-25T04:04:45;101784.16;;;16.56;98.53
68793;BME280;55778;54.346;10.210;2022-08-25T04:07:10;101791.94;;;16.60;98.77
68793;BME280;55778;54.346;10.210;2022-08-25T04:09:36;101790.78;;;16.63;98.85
68793;BME280;55778;54.346;10.210;2022-08-25T04:12:01;101798.94;;;16.72;99.23
68793;BME280;55778;54.346;10.210;2022-08-25T04:14:27;101803.63;;;16.80;99.20
68793;BME280;55778;54.346;10.210;2022-08-25T04:16:52;101805.59;;;16.87;99.67
68793;BME280;55778;54.346;10.210;2022-08-25T04:19:18;101807.94;;;17.00;99.64
68793;BME280;55778;54.346;10.210;2022-08-25T04:21:43;101809.72;;;17.09;99.54
68793;BME280;55778;54.346;10.210;2022-08-25T04:24:10;101806.47;;;17.13;99.87
68793;BME280;55778;54.346;10.210;2022-08-25T04:26:39;101814.66;;;17.31;99.77
68793;BME280;55778;54.346;10.210;2022-08-25T04:29:07;101806.44;;;17.39;99.45
68793;BME280;55778;54.346;10.210;2022-08-25T04:31:35;101804.31;;;17.50;98.58
68793;BME280;55778;54.346;10.210;2022-08-25T04:34:02;101813.47;;;17.59;98.45
68793;BME280;55778;54.346;10.210;2022-08-25T04:36:28;101812.75;;;17.57;99.13
68793;BME280;55778;54.346;10.210;2022-08-25T04:38:53;101815.22;;;17.68;98.35
68793;BME280;55778;54.346;10.210;2022-08-25T04:41:20;101819.19;;;17.73;98.49
68793;BME280;55778;54.346;10.210;2022-08-25T04:43:47;101817.66;;;17.79;98.47
68793;BME280;55778;54.346;10.210;2022-08-25T04:46:18;101814.41;;;17.83;97.79
68793;BME280;55778;54.346;10.210;2022-08-25T04:48:46;101821.69;;;17.92;97.83
68793;BME280;55778;54.346;10.210;2022-08-25T04:51:16;101818.75;;;17.94;97.83
68793;BME280;55778;54.346;10.210;2022-08-25T04:53:42;101820.34;;;17.97;97.85
68793;BME280;55778;54.346;10.210;2022-08-25T04:56:09;101821.91;;;18.15;97.01
68793;BME280;55778;54.346;10.210;2022-08-25T04:58:36;101817.97;;;18.26;96.58
68793;BME280;55778;54.346;10.210;2022-08-25T05:01:10;101814.56;;;18.40;95.70
68793;BME280;55778;54.346;10.210;2022-08-25T05:03:37;101824.06;;;18.37;95.71
68793;BME280;55778;54.346;10.210;2022-08-25T05:06:03;101819.94;;;18.49;95.42
68793;BME280;55778;54.346;10.210;2022-08-25T05:08:29;101812.16;;;18.45;95.25
68793;BME280;55778;54.346;10.210;2022-08-25T05:10:55;101828.75;;;18.53;94.90
68793;BME280;55778;54.346;10.210;2022-08-25T05:13:22;101833.75;;;18.57;94.54
68793;BME280;55778;54.346;10.210;2022-08-25T05:15:55;101836.16;;;18.52;94.65
68793;BME280;55778;54.346;10.210;2022-08-25T05:18:23;101832.56;;;18.68;94.22
68793;BME280;55778;54.346;10.210;2022-08-25T05:20:50;101836.69;;;18.64;94.42
68793;BME280;55778;54.346;10.210;2022-08-25T05:23:19;101841.69;;;18.76;93.52
68793;BME280;55778;54.346;10.210;2022-08-25T05:25:44;101834.09;;;18.78;93.21
68793;BME280;55778;54.346;10.210;2022-08-25T05:28:10;101825.47;;;18.89;92.91
68793;BME280;55778;54.346;10.210;2022-08-25T05:30:39;101830.13;;;18.89;92.64
68793;BME280;55778;54.346;10.210;2022-08-25T05:33:05;101819.25;;;18.87;92.76
68793;BME280;55778;54.346;10.210;2022-08-25T05:35:31;101816.47;;;18.87;92.63
68793;BME280;55778;54.346;10.210;2022-08-25T05:37:56;101820.63;;;18.99;92.24
68793;BME280;55778;54.346;10.210;2022-08-25T05:40:23;101820.44;;;19.01;91.75
68793;BME280;55778;54.346;10.210;2022-08-25T05:42:49;101821.31;;;19.01;92.08
68793;BME280;55778;54.346;10.210;2022-08-25T05:45:14;101817.16;;;19.05;91.61
68793;BME280;55778;54.346;10.210;2022-08-25T05:47:39;101812.31;;;18.99;91.93
68793;BME280;55778;54.346;10.210;2022-08-25T05:50:06;101811.81;;;19.12;91.55
68793;BME280;55778;54.346;10.210;2022-08-25T05:52:32;101814.38;;;19.13;91.45
68793;BME280;55778;54.346;10.210;2022-08-25T05:54:57;101819.34;;;19.26;90.71
68793;BME280;55778;54.346;10.210;2022-08-25T05:57:22;101820.22;;;19.18;91.12
68793;BME280;55778;54.346;10.210;2022-08-25T05:59:48;101807.97;;;19.21;90.72
68793;BME280;55778;54.346;10.210;2022-08-25T06:02:14;101805.91;;;19.31;90.73
68793;BME280;55778;54.346;10.210;2022-08-25T06:04:57;101794.31;;;19.35;89.80
68793;BME280;55778;54.346;10.210;2022-08-25T06:07:23;101789.13;;;19.40;90.03
68793;BME280;55778;54.346;10.210;2022-08-25T06:09:49;101798.03;;;19.58;88.68
68793;BME280;55778;54.346;10.210;2022-08-25T06:12:14;101793.00;;;19.62;88.22
68793;BME280;55778;54.346;10.210;2022-08-25T06:14:40;101795.41;;;19.65;88.04
68793;BME280;55778;54.346;10.210;2022-08-25T06:17:06;101794.28;;;19.82;87.08
68793;BME280;55778;54.346;10.210;2022-08-25T06:19:32;101801.19;;;19.86;87.14
68793;BME280;55778;54.346;10.210;2022-08-25T06:21:57;101792.47;;;19.97;86.31
68793;BME280;55778;54.346;10.210;2022-08-25T06:24:24;101799.78;;;19.90;86.37
68793;BME280;55778;54.346;10.210;2022-08-25T06:26:51;101798.91;;;19.90;86.73
68793;BME280;55778;54.346;10.210;2022-08-25T06:29:17;101798.53;;;20.01;86.49
68793;BME280;55778;54.346;10.210;2022-08-25T06:31:43;101794.16;;;20.14;86.57
68793;BME280;55778;54.346;10.210;2022-08-25T06:34:09;101790.94;;;20.25;85.19
68793;BME280;55778;54.346;10.210;2022-08-25T06:36:35;101795.84;;;20.46;84.97
68793;BME280;55778;54.346;10.210;2022-08-25T06:39:00;101785.06;;;20.51;84.84
68793;BME280;55778;54.346;10.210;2022-08-25T06:41:25;101777.84;;;20.64;83.54
68793;BME280;55778;54.346;10.210;2022-08-25T06:43:51;101781.91;;;20.76;82.37
68793;BME280;55778;54.346;10.210;2022-08-25T06:46:20;101785.06;;;20.88;82.44
68793;BME280;55778;54.346;10.210;2022-08-25T06:48:46;101786.41;;;20.92;81.86
68793;BME280;55778;54.346;10.210;2022-08-25T06:51:14;101779.13;;;20.99;81.87
68793;BME280;55778;54.346;10.210;2022-08-25T06:53:41;101787.13;;;21.08;79.82
68793;BME280;55778;54.346;10.210;2022-08-25T06:56:07;101779.00;;;21.07;79.89
68793;BME280;55778;54.346;10.210;2022-08-25T06:58:32;101782.66;;;21.22;79.71
68793;BME280;55778;54.346;10.210;2022-08-25T07:03:32;101788.69;;;21.40;78.81
68793;BME280;55778;54.346;10.210;2022-08-25T07:05:58;101783.34;;;21.38;78.57
68793;BME280;55778;54.346;10.210;2022-08-25T07:08:23;101796.44;;;21.44;78.83
68793;BME280;55778;54.346;10.210;2022-08-25T07:10:49;101790.13;;;21.50;78.47
68793;BME280;55778;54.346;10.210;2022-08-25T07:13:15;101786.78;;;21.55;77.92
68793;BME280;55778;54.346;10.210;2022-08-25T07:15:41;101788.03;;;21.52;78.17
68793;BME280;55778;54.346;10.210;2022-08-25T07:18:08;101790.06;;;21.58;78.19
68793;BME280;55778;54.346;10.210;2022-08-25T07:20:36;101796.56;;;21.80;76.77
68793;BME280;55778;54.346;10.210;2022-08-25T07:23:02;101798.25;;;21.81;76.21
68793;BME280;55778;54.346;10.210;2022-08-25T07:25:28;101804.41;;;21.77;75.84
68793;BME280;55778;54.346;10.210;2022-08-25T07:27:54;101803.03;;;21.73;75.96
68793;BME280;55778;54.346;10.210;2022-08-25T07:30:20;101812.91;;;21.60;76.65
68793;BME280;55778;54.346;10.210;2022-08-25T07:32:45;101812.06;;;21.60;76.51
68793;BME280;55778;54.346;10.210;2022-08-25T07:35:10;101801.59;;;21.62;76.44
68793;BME280;55778;54.346;10.210;2022-08-25T07:37:40;101806.19;;;21.69;76.02
68793;BME280;55778;54.346;10.210;2022-08-25T07:40:06;101804.47;;;21.68;76.75
68793;BME280;55778;54.346;10.210;2022-08-25T07:42:32;101806.31;;;21.61;76.64
68793;BME280;55778;54.346;10.210;2022-08-25T07:44:57;101813.97;;;21.59;77.05
68793;BME280;55778;54.346;10.210;2022-08-25T07:47:23;101810.13;;;21.46;76.96
68793;BME280;55778;54.346;10.210;2022-08-25T07:49:48;101803.91;;;21.44;77.04
68793;BME280;55778;54.346;10.210;2022-08-25T07:52:13;101805.16;;;21.41;77.23
68793;BME280;55778;54.346;10.210;2022-08-25T07:54:39;101814.63;;;21.47;76.87
68793;BME280;55778;54.346;10.210;2022-08-25T07:57:07;101808.78;;;21.71;76.54
68793;BME280;55778;54.346;10.210;2022-08-25T07:59:32;101808.84;;;22.07;74.36
68793;BME280;55778;54.346;10.210;2022-08-25T08:01:58;101798.84;;;22.27;73.13
68793;BME280;55778;54.346;10.210;2022-08-25T08:04:23;101800.84;;;22.54;73.06
68793;BME280;55778;54.346;10.210;2022-08-25T08:06:49;101801.25;;;22.72;71.10
68793;BME280;55778;54.346;10.210;2022-08-25T08:09:14;101798.34;;;22.59;71.04
68793;BME280;55778;54.346;10.210;2022-08-25T08:11:41;101797.28;;;22.60;71.50
68793;BME280;55778;54.346;10.210;2022-08-25T08:14:10;101800.69;;;22.41;72.25
68793;BME280;55778;54.346;10.210;2022-08-25T08:16:35;101807.38;;;22.61;71.71
68793;BME280;55778;54.346;10.210;2022-08-25T08:19:04;101788.00;;;22.95;71.11
68793;BME280;55778;54.346;10.210;2022-08-25T08:21:33;101795.38;;;23.09;69.28
68793;BME280;55778;54.346;10.210;2022-08-25T08:23:59;101794.84;;;23.20;69.71
68793;BME280;55778;54.346;10.210;2022-08-25T08:26:25;101791.16;;;23.47;69.26
68793;BME280;55778;54.346;10.210;2022-08-25T08:28:52;101790.16;;;23.54;67.44
68793;BME280;55778;54.346;10.210;2022-08-25T08:31:20;101786.34;;;23.62;67.21
68793;BME280;55778;54.346;10.210;2022-08-25T08:33:49;101788.91;;;23.57;66.78
68793;BME280;55778;54.346;10.210;2022-08-25T08:36:16;101788.75;;;23.72;67.23
68793;BME280;55778;54.346;10.210;2022-08-25T08:38:43;101783.50;;;23.90;66.37
68793;BME280;55778;54.346;10.210;2022-08-25T08:41:23;101778.88;;;24.03;66.79
68793;BME280;55778;54.346;10.210;2022-08-25T08:49:57;101771.91;;;24.53;62.72
68793;BME280;55778;54.346;10.210;2022-08-25T08:55:31;101767.03;;;25.00;61.99
68793;BME280;55778;54.346;10.210;2022-08-25T08:58:01;101766.63;;;24.77;62.36
68793;BME280;55778;54.346;10.210;2022-08-25T09:00:30;101767.03;;;25.00;61.11
68793;BME280;55778;54.346;10.210;2022-08-25T09:03:10;101770.03;;;25.18;61.59
68793;BME280;55778;54.346;10.210;2022-08-25T09:05:47;101770.03;;;25.18;61.07
68793;BME280;55778;54.346;10.210;2022-08-25T09:08:15;101775.16;;;25.41;61.10
68793;BME280;55778;54.346;10.210;2022-08-25T09:10:53;101775.56;;;25.45;60.28
68793;BME280;55778;54.346;10.210;2022-08-25T09:16:51;101771.75;;;25.00;59.71
68793;BME280;55778;54.346;10.210;2022-08-25T09:22:00;101762.03;;;24.57;61.42
68793;BME280;55778;54.346;10.210;2022-08-25T09:32:17;101748.34;;;25.07;60.74
68793;BME280;55778;54.346;10.210;2022-08-25T09:34:43;101746.63;;;25.32;59.82
68793;BME280;55778;54.346;10.210;2022-08-25T09:37:11;101744.25;;;25.43;59.10
68793;BME280;55778;54.346;10.210;2022-08-25T09:39:36;101733.69;;;25.58;58.44
68793;BME280;55778;54.346;10.210;2022-08-25T09:42:03;101739.94;;;26.04;56.45
68793;BME280;55778;54.346;10.210;2022-08-25T09:44:33;101735.56;;;26.14;55.60
68793;BME280;55778;54.346;10.210;2022-08-25T09:47:24;101732.19;;;26.37;55.80
68793;BME280;55778;54.346;10.210;2022-08-25T09:49:56;101727.72;;;26.36;54.80
68793;BME280;55778;54.346;10.210;2022-08-25T09:54:59;101727.41;;;27.24;53.66
68793;BME280;55778;54.346;10.210;2022-08-25T09:57:29;101725.31;;;27.74;52.41
68793;BME280;55778;54.346;10.210;2022-08-25T09:59:55;101726.09;;;27.81;51.71
68793;BME280;55778;54.346;10.210;2022-08-25T10:02:26;101730.53;;;27.70;51.62
68793;BME280;55778;54.346;10.210;2022-08-25T10:04:53;101730.63;;;27.46;52.46
68793;BME280;55778;54.346;10.210;2022-08-25T10:07:36;101721.84;;;26.75;54.13
68793;BME280;55778;54.346;10.210;2022-08-25T10:10:05;101718.41;;;26.42;55.02
68793;BME280;55778;54.346;10.210;2022-08-25T10:12:41;101730.31;;;25.93;56.13
68793;BME280;55778;54.346;10.210;2022-08-25T10:15:29;101719.13;;;25.93;57.47
68793;BME280;55778;54.346;10.210;2022-08-25T10:17:55;101722.84;;;25.74;57.69
68793;BME280;55778;54.346;10.210;2022-08-25T10:20:26;101709.16;;;25.60;59.12
68793;BME280;55778;54.346;10.210;2022-08-25T10:23:11;101701.88;;;25.59;58.42
68793;BME280;55778;54.346;10.210;2022-08-25T10:25:42;101696.00;;;25.73;58.80
68793;BME280;55778;54.346;10.210;2022-08-25T10:28:32;101699.91;;;26.41;57.12
68793;BME280;55778;54.346;10.210;2022-08-25T10:31:12;101697.53;;;26.13;57.02
68793;BME280;55778;54.346;10.210;2022-08-25T10:34:06;101695.97;;;26.48;56.00
68793;BME280;55778;54.346;10.210;2022-08-25T10:42:07;101690.38;;;27.58;53.15
68793;BME280;55778;54.346;10.210;2022-08-25T10:47:53;101683.00;;;27.82;50.98
68793;BME280;55778;54.346;10.210;2022-08-25T11:01:46;101667.91;;;28.53;48.05
68793;BME280;55778;54.346;10.210;2022-08-25T11:04:11;101670.00;;;28.69;47.25
68793;BME280;55778;54.346;10.210;2022-08-25T11:09:07;101669.63;;;28.89;47.42
68793;BME280;55778;54.346;10.210;2022-08-25T11:11:37;101677.63;;;28.39;48.26
68793;BME280;55778;54.346;10.210;2022-08-25T11:14:09;101671.97;;;28.57;47.83
68793;BME280;55778;54.346;10.210;2022-08-25T11:19:37;101662.56;;;28.86;47.62
68793;BME280;55778;54.346;10.210;2022-08-25T11:22:22;101659.91;;;28.91;47.23
68793;BME280;55778;54.346;10.210;2022-08-25T11:25:22;101651.34;;;28.98;47.02
68793;BME280;55778;54.346;10.210;2022-08-25T11:28:02;101650.19;;;29.57;46.14
68793;BME280;55778;54.346;10.210;2022-08-25T11:30:30;101648.34;;;29.62;45.43
68793;BME280;55778;54.346;10.210;2022-08-25T11:32:56;101644.88;;;29.72;45.54
68793;BME280;55778;54.346;10.210;2022-08-25T11:35:45;101637.56;;;29.59;45.87
68793;BME280;55778;54.346;10.210;2022-08-25T11:43:20;101628.44;;;29.64;46.21
68793;BME280;55778;54.346;10.210;2022-08-25T11:46:16;101625.63;;;29.64;46.40
68793;BME280;55778;54.346;10.210;2022-08-25T11:56:42;101614.75;;;28.93;48.58
68793;BME280;55778;54.346;10.210;2022-08-25T12:02:31;101601.59;;;28.59;48.91
68793;BME280;55778;54.346;10.210;2022-08-25T12:04:58;101609.25;;;28.75;47.79
68793;BME280;55778;54.346;10.210;2022-08-25T12:16:05;101602.78;;;28.63;49.81
68793;BME280;55778;54.346;10.210;2022-08-25T12:31:57;101582.72;;;28.25;51.49
68793;BME280;55778;54.346;10.210;2022-08-25T12:47:47;101562.19;;;28.01;52.64
68793;BME280;55778;54.346;10.210;2022-08-25T12:50:39;101559.31;;;27.78;53.63
68793;BME280;55778;54.346;10.210;2022-08-25T12:53:23;101563.72;;;27.45;54.32
68793;BME280;55778;54.346;10.210;2022-08-25T12:56:30;101561.09;;;26.95;55.66
68793;BME280;55778;54.346;10.210;2022-08-25T12:59:11;101558.44;;;26.64;56.96
68793;BME280;55778;54.346;10.210;2022-08-25T13:04:57;101557.59;;;26.57;56.87
68793;BME280;55778;54.346;10.210;2022-08-25T13:13:18;101547.50;;;26.14;59.28
68793;BME280;55778;54.346;10.210;2022-08-25T13:16:15;101543.13;;;26.24;58.80
68793;BME280;55778;54.346;10.210;2022-08-25T13:18:41;101550.00;;;26.22;59.12
68793;BME280;55778;54.346;10.210;2022-08-25T13:21:14;101545.78;;;26.13;60.04
68793;BME280;55778;54.346;10.210;2022-08-25T13:23:43;101538.72;;;26.10;59.39
68793;BME280;55778;54.346;10.210;2022-08-25T13:26:14;101546.09;;;26.05;60.23
68793;BME280;55778;54.346;10.210;2022-08-25T13:28:41;101531.94;;;26.00;60.02
68793;BME280;55778;54.346;10.210;2022-08-25T13:31:14;101530.88;;;26.01;60.30
68793;BME280;55778;54.346;10.210;2022-08-25T13:33:50;101522.94;;;25.91;60.60
68793;BME280;55778;54.346;10.210;2022-08-25T13:36:16;101525.34;;;25.57;61.11
68793;BME280;55778;54.346;10.210;2022-08-25T13:39:11;101513.25;;;25.38;61.86
68793;BME280;55778;54.346;10.210;2022-08-25T13:41:43;101504.47;;;25.34;62.33
68793;BME280;55778;54.346;10.210;2022-08-25T13:44:11;101506.00;;;25.24;62.52
68793;BME280;55778;54.346;10.210;2022-08-25T13:46:36;101508.38;;;25.20;63.70
68793;BME280;55778;54.346;10.210;2022-08-25T13:49:07;101498.50;;;25.24;62.58
68793;BME280;55778;54.346;10.210;2022-08-25T13:51:33;101492.22;;;25.35;62.63
68793;BME280;55778;54.346;10.210;2022-08-25T13:54:05;101495.63;;;25.44;62.73
68793;BME280;55778;54.346;10.210;2022-08-25T13:56:35;101486.56;;;25.49;63.12
68793;BME280;55778;54.346;10.210;2022-08-25T13:59:03;101484.91;;;25.41;62.67
68793;BME280;55778;54.346;10.210;2022-08-25T14:01:36;101482.31;;;25.40;63.07
68793;BME280;55778;54.346;10.210;2022-08-25T14:12:39;101471.50;;;25.12;63.43
68793;BME280;55778;54.346;10.210;2022-08-25T14:17:43;101471.28;;;25.13;63.45
68793;BME280;55778;54.346;10.210;2022-08-25T14:20:23;101480.59;;;25.01;64.24
68793;BME280;55778;54.346;10.210;2022-08-25T14:22:55;101468.41;;;24.89;64.70
68793;BME280;55778;54.346;10.210;2022-08-25T14:25:21;101470.41;;;24.82;64.89
68793;BME280;55778;54.346;10.210;2022-08-25T14:28:00;101462.19;;;24.87;65.18
68793;BME280;55778;54.346;10.210;2022-08-25T14:30:27;101463.28;;;24.92;65.19
68793;BME280;55778;54.346;10.210;2022-08-25T14:32:53;101466.06;;;24.92;65.16
68793;BME280;55778;54.346;10.210;2022-08-25T14:35:19;101457.50;;;24.87;64.81
68793;BME280;55778;54.346;10.210;2022-08-25T14:37:44;101467.75;;;24.93;65.04
68793;BME280;55778;54.346;10.210;2022-08-25T14:40:11;101455.97;;;24.91;64.86
68793;BME280;55778;54.346;10.210;2022-08-25T14:42:39;101444.81;;;24.91;65.00
68793;BME280;55778;54.346;10.210;2022-08-25T14:45:05;101446.53;;;24.92;65.21
68793;BME280;55778;54.346;10.210;2022-08-25T14:47:31;101441.41;;;24.89;64.63
68793;BME280;55778;54.346;10.210;2022-08-25T14:49:57;101443.56;;;24.81;65.19
68793;BME280;55778;54.346;10.210;2022-08-25T14:52:28;101436.06;;;24.81;65.04
68793;BME280;55778;54.346;10.210;2022-08-25T14:54:55;101440.56;;;24.82;64.79
68793;BME280;55778;54.346;10.210;2022-08-25T14:57:22;101431.59;;;24.80;65.33